Portada
METAR-TAF:

METAR-TAF

Aeroports :

Turaif, Aràbia Saudita

latitud: 31-41N, longitud: 038-44E, altitud: 813 m

Observació

L'informe es va fer fa 19 minuts, a les 12:00 UTC
Vent 10 kt del Est/Sud-Est
Temperatura 23°C
Humitat 61%
Pressió 1015 hPa
Visibilitat 10 km o més
Cel ennuvolat a una alçada de 3000 ft
Cel ennuvolat a una alçada de 10000 ft

METAR: OETR 141200Z 12010KT 9999 BKN030 BKN100 23/15 Q1015

Hora: 15:19 (12:19 UTC)

Pronòstic

L'informe es va fer fa 1 hora i 19 minuts, a les 11:00 UTC
Pronòstic vàlid del 14 a les 12 UTC al 15 a les 18 UTC
Vent 6 kt del Sud amb ràfegues de 16 kt
Visibilitat: 7000 m
Escasses núvols a una alçada de 4000 ft
Temporalment
l' 14 a les 12 UTC al 14 a les 23 UTC
Escasses núvols a una alçada de 3500 ft, Cumulonimbus.
Núvols disperses a una alçada de 4000 ft
Evolucionant progressivament
l' 14 a les 20 UTC al 14 a les 22 UTC
Vent 3 kt amb direcció variable

TAF: OETR 141100Z 1412/1518 18006G16KT 7000 FEW040 TEMPO 1412/1423 FEW035CB SCT040 BECMG 1420/1422 VRB03KT

Observacions i pronòstics meteorològics de més de 4000 aeroports (METAR i TAF).

Les estacions disponibles són els punts grocs i vermells al mapa.

Posi el ratolí al punt desitjat per veure el nom de l'estació.

Feu clic per veure les observacions i els pronòstics meteorològics.

Per canviar el mapa: feu clic els botons verds amb una creu de color negre per apropar; al botó verd amb un guió per allunyar la imatge; o en les fletxes verdes per a mapes adjacents.


METAR-TAF: